Mega Smeralda — ICIU — position and weather

sailwx.info

Track history (hours):
 
Tides and Currents Weather Stations Pressure Air Temp Water Temp Dewpoint Dewpoint Depression Visibility Wind Speed Wind Dir Waves Ship Positions

Mega Smeralda

Last reported at 2017-Aug-19 07:31 UTC. Time now 2017-Aug-19 07:38 UTC.
Position N 43°17' E 009°19'.

Length 171 m; draft 6.4 m.

Type: Passenger vessel. MMSI: 247228600.

Date/timePositionNaut miles runAvg speedWind from/ knotsBaromVisibWave heightAir tempDewpointWater temp
2017-Aug-19 07:31N 43°17' E 009°19'1020.0
2017-Aug-19 07:00N 43°09' E 009°26'1019.6
2017-Aug-19 06:30N 43°00' E 009°33'1020.4
2017-Aug-19 06:01N 42°50' E 009°34'10 5.9
2017-Aug-19 04:23N 42°42' E 009°27'411.4
2017-Aug-19 04:00N 42°45' E 009°32'816.3
2017-Aug-19 03:30N 42°53' E 009°34'816.9
2017-Aug-19 03:00N 43°01' E 009°32'918.2
2017-Aug-19 02:30N 43°09' E 009°26'918.0
2017-Aug-19 02:00N 43°17' E 009°20'917.5
2017-Aug-19 01:30N 43°25' E 009°14'817.2
2017-Aug-19 01:00N 43°32' E 009°08'917.1
2017-Aug-19 00:30N 43°39' E 009°01'917.6
2017-Aug-19 00:00N 43°46' E 008°55'917.7
2017-Aug-18 23:30N 43°54' E 008°48'917.0
2017-Aug-18 23:00N 44°01' E 008°42'917.6
2017-Aug-18 22:30N 44°08' E 008°35'917.1
2017-Aug-18 22:00N 44°16' E 008°29'2 3.1
2017-Aug-18 21:30N 44°16' E 008°27'0 0.0
2017-Aug-18 21:00N 44°16' E 008°27'1 1.6
2017-Aug-18 20:30N 44°16' E 008°28'714.2
2017-Aug-18 20:00N 44°10' E 008°32'1019.8
2017-Aug-18 19:30N 44°02' E 008°24'1019.8
2017-Aug-18 19:00N 43°55' E 008°15'1019.7
2017-Aug-18 18:30N 43°49' E 008°04'1019.4
2017-Aug-18 18:00N 43°45' E 007°52'1019.7
2017-Aug-18 17:30N 43°42' E 007°38'1019.9
2017-Aug-18 17:00N 43°40' E 007°25'6 5.6
2017-Aug-18 15:58N 43°42' E 007°17'4 9.6
2017-Aug-18 15:30N 43°38' E 007°21'1020.0
2017-Aug-18 15:00N 43°35' E 007°34'1020.3
2017-Aug-18 14:30N 43°31' E 007°47'2020.1
2017-Aug-18 13:30N 43°25' E 008°13'1020.0
2017-Aug-18 13:00N 43°21' E 008°26'1019.8
2017-Aug-18 12:30N 43°18' E 008°39'1019.4
2017-Aug-18 12:00N 43°14' E 008°51'1019.6
2017-Aug-18 11:30N 43°11' E 009°04'1019.7
2017-Aug-18 11:00N 43°07' E 009°17'1019.4
2017-Aug-18 10:30N 43°03' E 009°28'1019.4
2017-Aug-18 10:00N 42°54' E 009°34'917.4
2017-Aug-18 09:30N 42°45' E 009°32'5 1.3
2017-Aug-18 05:50N 42°42' E 009°28'515.8
2017-Aug-18 05:30N 42°46' E 009°33'918.0
2017-Aug-18 05:01N 42°55' E 009°33'1018.3
2017-Aug-18 04:29N 43°03' E 009°27'919.2
2017-Aug-18 04:00N 43°04' E 009°15'1020.0
2017-Aug-18 03:30N 43°04' E 009°01'1020.4
2017-Aug-18 03:00N 43°03' E 008°47'1020.3
2017-Aug-18 02:30N 43°03' E 008°33'917.4
2017-Aug-18 02:00N 43°02' E 008°21'917.3
2017-Aug-18 01:30N 43°01' E 008°10'917.3
2017-Aug-18 01:00N 43°01' E 007°58'917.2
2017-Aug-18 00:30N 43°00' E 007°46'917.3
2017-Aug-18 00:00N 42°59' E 007°34'5615.8
2017-Aug-17 20:28N 42°57' E 006°18'714.7
2017-Aug-17 20:00N 42°57' E 006°09'713.1
2017-Aug-17 19:29N 43°01' E 006°01'714.1
2017-Aug-17 19:01N 43°06' E 005°55'1 2.2
2017-Aug-17 18:29N 43°07' E 005°56'0 0.0
2017-Aug-17 17:59N 43°07' E 005°56'0 0.0
2017-Aug-17 17:29N 43°07' E 005°56'0 0.0
2017-Aug-17 16:59N 43°07' E 005°56'0 0.0
2017-Aug-17 16:29N 43°07' E 005°56'0 0.0
2017-Aug-17 15:59N 43°07' E 005°56'0 0.0
2017-Aug-17 15:29N 43°07' E 005°56'0 0.0
2017-Aug-17 14:59N 43°07' E 005°56'0 0.0
2017-Aug-17 14:29N 43°07' E 005°56'0 0.0
2017-Aug-17 13:59N 43°07' E 005°56'0 0.0
2017-Aug-17 13:29N 43°07' E 005°56'0 0.0
2017-Aug-17 12:59N 43°07' E 005°56'0 0.0
2017-Aug-17 12:29N 43°07' E 005°56'0 0.0
2017-Aug-17 11:59N 43°07' E 005°56'0 0.0
2017-Aug-17 11:29N 43°07' E 005°56'0 0.0
2017-Aug-17 10:59N 43°07' E 005°56'0 0.0
2017-Aug-17 10:29N 43°07' E 005°56'0 0.0
2017-Aug-17 09:59N 43°07' E 005°56'0 0.0
2017-Aug-17 09:29N 43°07' E 005°56'0 0.0
2017-Aug-17 08:59N 43°07' E 005°56'0 0.0
2017-Aug-17 08:29N 43°07' E 005°56'0 0.0
2017-Aug-17 07:59N 43°07' E 005°56'0 0.0
2017-Aug-17 07:29N 43°07' E 005°56'0 0.0
2017-Aug-17 06:59N 43°07' E 005°56'0 0.0
2017-Aug-17 06:29N 43°07' E 005°56'0 0.3
2017-Aug-17 06:01N 43°07' E 005°56'910.8
2017-Aug-17 05:10N 42°60' E 006°03'215.2
2017-Aug-17 05:00N 42°58' E 006°05'814.7
2017-Aug-17 04:29N 42°56' E 006°15'815.8
2017-Aug-17 04:00N 42°56' E 006°26'815.9
2017-Aug-17 03:30N 42°57' E 006°37'815.8
2017-Aug-17 03:00N 42°57' E 006°48'815.8
2017-Aug-17 02:30N 42°58' E 006°58'815.3
2017-Aug-17 02:00N 42°58' E 007°09'815.6
2017-Aug-17 01:30N 42°59' E 007°19'815.6
2017-Aug-17 01:00N 42°60' E 007°30'816.1
2017-Aug-17 00:30N 43°00' E 007°41'816.7
2017-Aug-17 00:00N 43°00' E 007°52'816.6
2017-Aug-16 23:30N 43°01' E 008°04'816.5
2017-Aug-16 23:00N 43°01' E 008°15'816.4
2017-Aug-16 22:30N 43°02' E 008°26'816.0
2017-Aug-16 22:00N 43°02' E 008°37'815.7
2017-Aug-16 21:30N 43°03' E 008°48'815.7
2017-Aug-16 21:00N 43°03' E 008°58'815.9
2017-Aug-16 20:30N 43°04' E 009°09'816.5
2017-Aug-16 20:00N 43°04' E 009°21'715.0
2017-Aug-16 19:30N 43°03' E 009°31'714.8
2017-Aug-16 19:00N 42°55' E 009°34'815.8
2017-Aug-16 18:30N 42°47' E 009°34'7 2.9
2017-Aug-16 16:00N 42°42' E 009°28'816.0
2017-Aug-16 15:31N 42°48' E 009°35'918.9
2017-Aug-16 15:01N 42°58' E 009°33'918.2
2017-Aug-16 14:30N 43°04' E 009°24'919.4
2017-Aug-16 14:01N 43°04' E 009°11'1019.9
2017-Aug-16 13:30N 43°03' E 008°57'1020.6
2017-Aug-16 13:01N 43°03' E 008°43'1020.7
2017-Aug-16 12:31N 43°02' E 008°29'1020.5
2017-Aug-16 12:00N 43°01' E 008°15'1020.1
2017-Aug-16 11:31N 43°01' E 008°02'1019.7
2017-Aug-16 11:00N 42°60' E 007°48'1019.8
2017-Aug-16 10:31N 42°59' E 007°35'1020.1
2017-Aug-16 10:00N 42°59' E 007°21'1020.1
2017-Aug-16 09:30N 42°58' E 007°07'1020.1
2017-Aug-16 09:00N 42°57' E 006°54'1019.5
2017-Aug-16 08:29N 42°57' E 006°40'919.3
2017-Aug-16 08:00N 42°56' E 006°27'1019.5
2017-Aug-16 07:30N 42°56' E 006°14'1218.5
2017-Aug-16 06:51N 43°02' E 005°60'514.5
2017-Aug-16 06:31N 43°06' E 005°55'2 1.8
2017-Aug-16 05:38N 43°07' E 005°56'0 0.0
2017-Aug-16 05:25N 43°07' E 005°56'0 0.0
2017-Aug-16 04:59N 43°07' E 005°56'3 5.6
2017-Aug-16 04:30N 43°05' E 005°58'712.7
2017-Aug-16 03:59N 42°60' E 006°03'714.0
2017-Aug-16 03:30N 42°55' E 006°10'714.2
2017-Aug-16 03:00N 42°51' E 006°18'914.3
2017-Aug-16 02:24N 42°47' E 006°29'614.3
2017-Aug-16 01:59N 42°44' E 006°35'3214.2
2017-Aug-15 23:44N 42°27' E 007°12'314.1
2017-Aug-15 23:30N 42°25' E 007°16'714.0
2017-Aug-15 23:00N 42°21' E 007°24'714.0
2017-Aug-15 22:30N 42°18' E 007°32'714.1
2017-Aug-15 22:00N 42°14' E 007°40'714.2
2017-Aug-15 21:30N 42°10' E 007°48'714.0
2017-Aug-15 21:00N 42°06' E 007°56'714.1
2017-Aug-15 20:30N 42°03' E 008°04'714.2
2017-Aug-15 19:59N 41°59' E 008°12'714.2
2017-Aug-15 19:28N 41°54' E 008°21'714.1
2017-Aug-15 19:00N 41°51' E 008°28'713.6
2017-Aug-15 18:30N 41°50' E 008°37'1 0.2
2017-Aug-15 14:35N 41°50' E 008°38'119.7
2017-Aug-15 14:30N 41°50' E 008°36'1019.3
2017-Aug-15 14:01N 41°53' E 008°24'1019.8
2017-Aug-15 13:31N 41°58' E 008°13'1019.6
2017-Aug-15 13:01N 42°04' E 008°02'1019.8
2017-Aug-15 12:31N 42°09' E 007°51'1019.7
2017-Aug-15 12:00N 42°14' E 007°39'1019.9
2017-Aug-15 11:31N 42°20' E 007°28'1020.0
2017-Aug-15 11:00N 42°25' E 007°16'1119.7
2017-Aug-15 10:26N 42°31' E 007°03'819.7
2017-Aug-15 10:01N 42°35' E 006°54'1019.5
2017-Aug-15 09:30N 42°40' E 006°43'1019.4
2017-Aug-15 09:01N 42°45' E 006°32'1019.4
2017-Aug-15 08:30N 42°51' E 006°20'1019.5
2017-Aug-15 08:00N 42°56' E 006°09'1119.2
2017-Aug-15 07:25N 43°04' E 005°59'4 8.5
2017-Aug-15 07:00N 43°07' E 005°56'0 0.1
2017-Aug-15 06:31N 43°07' E 005°56'0 0.0
2017-Aug-15 06:01N 43°07' E 005°56'2 3.7
2017-Aug-15 05:30N 43°05' E 005°57'816.3
2017-Aug-15 05:00N 42°59' E 006°04'4019.8
2017-Aug-15 02:59N 42°57' E 006°58'919.7
2017-Aug-15 02:30N 42°58' E 007°11'1019.4
2017-Aug-15 02:00N 42°59' E 007°24'1019.4
2017-Aug-15 01:30N 42°59' E 007°38'1019.6
2017-Aug-15 01:00N 42°60' E 007°51'1019.2
2017-Aug-15 00:30N 43°00' E 008°04'1019.3
2017-Aug-15 00:00N 43°01' E 008°17'1019.3
2017-Aug-14 23:30N 43°02' E 008°30'918.8
2017-Aug-14 23:00N 43°02' E 008°43'918.7
2017-Aug-14 22:30N 43°03' E 008°56'919.0
2017-Aug-14 22:00N 43°04' E 009°09'1019.2
2017-Aug-14 21:30N 43°04' E 009°22'917.7
2017-Aug-14 21:00N 42°60' E 009°33'1020.0
2017-Aug-14 20:30N 42°50' E 009°34'9 5.6
2017-Aug-14 18:49N 42°42' E 009°28'514.3
2017-Aug-14 18:30N 42°45' E 009°32'918.0
2017-Aug-14 18:00N 42°54' E 009°34'918.2
2017-Aug-14 17:30N 43°02' E 009°29'1019.2
2017-Aug-14 17:00N 43°06' E 009°17'1019.6
2017-Aug-14 16:30N 43°10' E 009°04'1019.8
2017-Aug-14 16:00N 43°13' E 008°52'1020.0
2017-Aug-14 15:30N 43°16' E 008°39'1020.1
2017-Aug-14 15:00N 43°20' E 008°26'1020.1
2017-Aug-14 14:30N 43°24' E 008°13'1019.9
2017-Aug-14 14:00N 43°28' E 008°00'1019.7
2017-Aug-14 13:30N 43°31' E 007°48'1019.4
2017-Aug-14 13:00N 43°34' E 007°35'1019.3
2017-Aug-14 12:30N 43°38' E 007°23'5 2.4
2017-Aug-14 10:32N 43°41' E 007°17'0 9.9
2017-Aug-14 10:29N 43°40' E 007°17'714.0
2017-Aug-14 10:00N 43°36' E 007°24'715.0
2017-Aug-14 09:30N 43°31' E 007°32'918.6
2017-Aug-14 09:00N 43°25' E 007°42'1020.0
2017-Aug-14 08:30N 43°19' E 007°53'1020.0
2017-Aug-14 08:01N 43°12' E 008°03'1019.9
2017-Aug-14 07:30N 43°06' E 008°14'1019.8
2017-Aug-14 07:01N 42°60' E 008°24'1019.6
2017-Aug-14 06:30N 42°54' E 008°34'1019.2
2017-Aug-14 06:00N 42°48' E 008°45'1019.5
2017-Aug-14 05:31N 42°41' E 008°55'3 5.2
2017-Aug-14 04:55N 42°38' E 008°56'0 0.0
2017-Aug-14 04:26N 42°38' E 008°56'0 0.0
2017-Aug-14 03:58N 42°38' E 008°56'5 7.2
2017-Aug-14 03:16N 42°43' E 008°53'2112.4
2017-Aug-14 01:36N 42°56' E 008°31'212.7
2017-Aug-14 01:27N 42°58' E 008°29'612.6
2017-Aug-14 00:57N 43°02' E 008°23'1313.7
2017-Aug-14 00:00N 43°10' E 008°09'714.8
2017-Aug-13 23:30N 43°15' E 008°01'714.8
2017-Aug-13 23:00N 43°19' E 007°53'714.6
2017-Aug-13 22:30N 43°24' E 007°45'714.4
2017-Aug-13 22:00N 43°28' E 007°38'714.1
2017-Aug-13 21:30N 43°32' E 007°30'714.0
2017-Aug-13 21:00N 43°37' E 007°22'5 3.2
2017-Aug-13 19:21N 43°40' E 007°17'617.2
2017-Aug-13 19:01N 43°38' E 007°24'1020.3
2017-Aug-13 18:30N 43°34' E 007°37'1020.3
2017-Aug-13 18:00N 43°31' E 007°51'1020.1
2017-Aug-13 17:31N 43°27' E 008°04'1020.0
2017-Aug-13 17:00N 43°24' E 008°17'1020.1
2017-Aug-13 16:30N 43°20' E 008°30'1020.0
2017-Aug-13 16:00N 43°17' E 008°42'1019.8
2017-Aug-13 15:31N 43°13' E 008°55'1019.6
2017-Aug-13 15:00N 43°10' E 009°08'1019.5
2017-Aug-13 14:30N 43°07' E 009°20'1019.2
2017-Aug-13 14:00N 43°01' E 009°31'1120.5
2017-Aug-13 13:29N 42°51' E 009°34'10 6.6
2017-Aug-13 11:58N 42°42' E 009°27'715.0
2017-Aug-13 11:30N 42°47' E 009°34'918.0
2017-Aug-13 10:59N 42°56' E 009°33'1019.0
2017-Aug-13 10:26N 43°06' E 009°28'919.9
2017-Aug-13 10:00N 43°13' E 009°22'1019.7
2017-Aug-13 09:29N 43°22' E 009°14'919.6
2017-Aug-13 09:01N 43°30' E 009°08'1019.7
2017-Aug-13 08:30N 43°39' E 009°01'1019.7
2017-Aug-13 08:01N 43°47' E 008°54'1019.4
2017-Aug-13 07:30N 43°56' E 008°47'1019.4
2017-Aug-13 07:01N 44°04' E 008°40'1019.3
2017-Aug-13 06:30N 44°12' E 008°33'611.5
2017-Aug-13 06:00N 44°16' E 008°27'0 0.0
2017-Aug-13 05:30N 44°16' E 008°27'1 1.5
2017-Aug-13 05:00N 44°16' E 008°28'715.0
2017-Aug-13 04:30N 44°11' E 008°35'1020.1
2017-Aug-13 04:00N 44°02' E 008°42'1020.2
2017-Aug-13 03:30N 43°54' E 008°49'1020.0
2017-Aug-13 03:00N 43°45' E 008°57'1020.1
2017-Aug-13 02:30N 43°36' E 009°04'1020.2
2017-Aug-13 02:00N 43°28' E 009°10'1020.5
2017-Aug-13 01:30N 43°19' E 009°18'1020.0
2017-Aug-13 01:00N 43°10' E 009°25'1019.4
2017-Aug-13 00:30N 43°02' E 009°31'1020.3
2017-Aug-13 00:00N 42°52' E 009°34'11 7.0
2017-Aug-12 22:24N 42°42' E 009°27'513.1
2017-Aug-12 22:00N 42°45' E 009°32'917.9
2017-Aug-12 21:30N 42°54' E 009°34'1019.1
2017-Aug-12 21:00N 43°03' E 009°30'1020.2
2017-Aug-12 20:30N 43°12' E 009°23'1019.9
2017-Aug-12 20:00N 43°21' E 009°16'1019.8
2017-Aug-12 19:30N 43°29' E 009°09'1019.6
2017-Aug-12 19:00N 43°37' E 009°02'1019.6
2017-Aug-12 18:30N 43°46' E 008°54'1019.4
2017-Aug-12 18:00N 43°54' E 008°48'1019.9
2017-Aug-12 17:30N 44°03' E 008°41'1019.8
2017-Aug-12 17:00N 44°11' E 008°33'713.5
2017-Aug-12 16:30N 44°16' E 008°27'0 0.0
2017-Aug-12 16:00N 44°16' E 008°27'2 3.6
2017-Aug-12 15:30N 44°16' E 008°29'917.9
2017-Aug-12 15:01N 44°09' E 008°37'1019.3
2017-Aug-12 14:31N 44°01' E 008°44'1019.5
2017-Aug-12 14:00N 43°53' E 008°51'1019.3
2017-Aug-12 13:30N 43°44' E 008°57'1019.3
2017-Aug-12 13:01N 43°36' E 009°04'1019.4
2017-Aug-12 12:31N 43°28' E 009°11'1019.8
2017-Aug-12 12:01N 43°19' E 009°18'1019.7
2017-Aug-12 11:30N 43°10' E 009°24'0 0.1
2017-Aug-12 06:41N 43°10' E 009°25'319.4
2017-Aug-12 06:30N 43°13' E 009°22'1319.1
2017-Aug-12 05:50N 43°24' E 009°13'618.9
2017-Aug-12 05:30N 43°29' E 009°09'1019.1
2017-Aug-12 05:00N 43°37' E 009°02'1019.0
2017-Aug-12 04:30N 43°45' E 008°55'1019.1
2017-Aug-12 04:00N 43°53' E 008°48'1019.3
2017-Aug-12 03:30N 44°02' E 008°41'1019.5
2017-Aug-12 03:00N 44°10' E 008°34'815.8
2017-Aug-12 02:30N 44°16' E 008°27'0 0.5
2017-Aug-12 02:00N 44°16' E 008°27'0 0.0
2017-Aug-12 01:30N 44°16' E 008°27'0 0.0
2017-Aug-12 01:01N 44°16' E 008°27'0 0.0
2017-Aug-12 00:31N 44°16' E 008°27'0 0.0
2017-Aug-12 00:00N 44°16' E 008°27'0 0.0
2017-Aug-11 23:30N 44°16' E 008°27'4 7.2
2017-Aug-11 23:00N 44°15' E 008°32'918.1
2017-Aug-11 22:31N 44°06' E 008°30'918.8
2017-Aug-11 22:00N 43°56' E 008°28'918.4
2017-Aug-11 21:31N 43°47' E 008°26'918.6
2017-Aug-11 21:00N 43°38' E 008°24'915.4
2017-Aug-11 20:26N 43°29' E 008°24'818.3
2017-Aug-11 20:01N 43°27' E 008°34'917.9
2017-Aug-11 19:30N 43°24' E 008°46'917.9
2017-Aug-11 19:01N 43°21' E 008°58'917.9
2017-Aug-11 18:31N 43°18' E 009°09'917.5
2017-Aug-11 18:01N 43°15' E 009°20'918.0
2017-Aug-11 17:30N 43°08' E 009°28'7 1.4
2017-Aug-11 12:56N 43°02' E 009°32'4716.1
2017-Aug-11 10:00N 43°32' E 008°43'1018.7
2017-Aug-11 09:29N 43°41' E 008°39'919.0
2017-Aug-11 09:01N 43°50' E 008°37'1019.6
2017-Aug-11 08:30N 43°60' E 008°35'1019.9
2017-Aug-11 08:00N 44°10' E 008°33'714.8
2017-Aug-11 07:30N 44°16' E 008°27'0 0.3
2017-Aug-11 07:01N 44°16' E 008°27'0 0.0
2017-Aug-11 06:31N 44°16' E 008°27'2 4.1
2017-Aug-11 06:01N 44°16' E 008°30'815.6
2017-Aug-11 05:30N 44°09' E 008°33'918.6
2017-Aug-11 05:00N 43°60' E 008°31'918.4
2017-Aug-11 04:30N 43°51' E 008°27'1019.0
2017-Aug-11 04:00N 43°42' E 008°23'68 9.3
2017-Aug-10 20:41N 42°39' E 008°57'2817.5
2017-Aug-10 19:06N 42°46' E 008°21'219.4
2017-Aug-10 19:00N 42°47' E 008°18'919.2
2017-Aug-10 18:30N 42°49' E 008°05'1019.5
2017-Aug-10 18:01N 42°51' E 007°53'1417.5
2017-Aug-10 17:13N 43°01' E 007°40'419.5
2017-Aug-10 17:00N 43°05' E 007°37'1019.4
2017-Aug-10 16:30N 43°14' E 007°32'1019.3
2017-Aug-10 16:00N 43°23' E 007°27'1019.3
2017-Aug-10 15:29N 43°32' E 007°22'919.0
2017-Aug-10 15:00N 43°40' E 007°17'0 0.3
2017-Aug-10 13:29N 43°40' E 007°17'917.0
2017-Aug-10 12:56N 43°36' E 007°29'1219.8
2017-Aug-10 12:20N 43°32' E 007°45'619.6
2017-Aug-10 12:00N 43°30' E 007°53'1019.3
2017-Aug-10 11:30N 43°26' E 008°06'918.7
2017-Aug-10 11:00N 43°23' E 008°18'918.6
2017-Aug-10 10:30N 43°20' E 008°29'918.6
2017-Aug-10 10:00N 43°17' E 008°42'918.6
2017-Aug-10 09:30N 43°14' E 008°53'1019.0
2017-Aug-10 08:58N 43°10' E 009°07'919.1
2017-Aug-10 08:30N 43°07' E 009°18'918.7
2017-Aug-10 08:00N 43°03' E 009°29'1019.2
2017-Aug-10 07:30N 42°53' E 009°34'12 5.4
2017-Aug-10 05:12N 42°42' E 009°27'1 6.4
2017-Aug-10 05:00N 42°42' E 009°29'5 9.5
2017-Aug-10 04:30N 42°46' E 009°33'918.9
2017-Aug-10 04:00N 42°56' E 009°34'1018.3
2017-Aug-10 03:28N 43°04' E 009°26'919.4
2017-Aug-10 03:00N 43°04' E 009°14'1019.5
2017-Aug-10 02:30N 43°03' E 009°01'1019.4
2017-Aug-10 02:00N 43°03' E 008°47'1019.4
2017-Aug-10 01:30N 43°02' E 008°34'1119.5
2017-Aug-10 00:56N 43°01' E 008°19'819.3
2017-Aug-10 00:30N 43°01' E 008°08'919.0
2017-Aug-10 00:00N 43°00' E 007°55'1019.2
2017-Aug-09 23:30N 42°60' E 007°42'1019.4
2017-Aug-09 23:00N 42°59' E 007°28'1019.6
2017-Aug-09 22:30N 42°58' E 007°15'5618.2
2017-Aug-09 19:24N 43°04' E 005°58'3 8.2
2017-Aug-09 19:00N 43°07' E 005°56'0 0.1
2017-Aug-09 18:31N 43°07' E 005°56'0 0.0
2017-Aug-09 18:01N 43°07' E 005°56'0 0.0
2017-Aug-09 17:31N 43°07' E 005°56'1 1.3
2017-Aug-09 17:00N 43°07' E 005°55'1113.2
2017-Aug-09 16:10N 42°58' E 006°05'518.3
2017-Aug-09 15:55N 42°56' E 006°10'818.9
2017-Aug-09 15:30N 42°52' E 006°20'918.8
2017-Aug-09 15:00N 42°48' E 006°32'1019.0
2017-Aug-09 14:30N 42°45' E 006°44'919.1
2017-Aug-09 14:00N 42°40' E 006°55'1019.3
2017-Aug-09 13:29N 42°33' E 007°05'919.7
2017-Aug-09 13:00N 42°27' E 007°15'1019.8
2017-Aug-09 12:31N 42°21' E 007°25'1019.7
2017-Aug-09 12:00N 42°15' E 007°37'1019.7
2017-Aug-09 11:31N 42°10' E 007°47'1019.6
2017-Aug-09 11:01N 42°05' E 007°59'  
Track history (hours):
 
Tides and Currents Weather Stations Pressure Air Temp Water Temp Dewpoint Dewpoint Depression Visibility Wind Speed Wind Dir Waves Ship Positions

Mega Smeralda

Last reported at 2017-Aug-19 07:31 UTC. Time now 2017-Aug-19 07:38 UTC.
Position N 43°17' E 009°19'.

Length 171 m; draft 6.4 m.

Type: Passenger vessel. MMSI: 247228600.

Date/timePositionNaut miles runAvg speedWind from/ knotsBaromVisibWave heightAir tempDewpointWater temp
2017-Aug-19 07:31N 43°17' E 009°19'1020.0
2017-Aug-19 07:00N 43°09' E 009°26'1019.6
2017-Aug-19 06:30N 43°00' E 009°33'1020.4
2017-Aug-19 06:01N 42°50' E 009°34'10 5.9
2017-Aug-19 04:23N 42°42' E 009°27'411.4
2017-Aug-19 04:00N 42°45' E 009°32'816.3
2017-Aug-19 03:30N 42°53' E 009°34'816.9
2017-Aug-19 03:00N 43°01' E 009°32'918.2
2017-Aug-19 02:30N 43°09' E 009°26'918.0
2017-Aug-19 02:00N 43°17' E 009°20'917.5
2017-Aug-19 01:30N 43°25' E 009°14'817.2
2017-Aug-19 01:00N 43°32' E 009°08'917.1
2017-Aug-19 00:30N 43°39' E 009°01'917.6
2017-Aug-19 00:00N 43°46' E 008°55'917.7
2017-Aug-18 23:30N 43°54' E 008°48'917.0
2017-Aug-18 23:00N 44°01' E 008°42'917.6
2017-Aug-18 22:30N 44°08' E 008°35'917.1
2017-Aug-18 22:00N 44°16' E 008°29'2 3.1
2017-Aug-18 21:30N 44°16' E 008°27'0 0.0
2017-Aug-18 21:00N 44°16' E 008°27'1 1.6
2017-Aug-18 20:30N 44°16' E 008°28'714.2
2017-Aug-18 20:00N 44°10' E 008°32'1019.8
2017-Aug-18 19:30N 44°02' E 008°24'1019.8
2017-Aug-18 19:00N 43°55' E 008°15'1019.7
2017-Aug-18 18:30N 43°49' E 008°04'1019.4
2017-Aug-18 18:00N 43°45' E 007°52'1019.7
2017-Aug-18 17:30N 43°42' E 007°38'1019.9
2017-Aug-18 17:00N 43°40' E 007°25'6 5.6
2017-Aug-18 15:58N 43°42' E 007°17'4 9.6
2017-Aug-18 15:30N 43°38' E 007°21'1020.0
2017-Aug-18 15:00N 43°35' E 007°34'1020.3
2017-Aug-18 14:30N 43°31' E 007°47'2020.1
2017-Aug-18 13:30N 43°25' E 008°13'1020.0
2017-Aug-18 13:00N 43°21' E 008°26'1019.8
2017-Aug-18 12:30N 43°18' E 008°39'1019.4
2017-Aug-18 12:00N 43°14' E 008°51'1019.6
2017-Aug-18 11:30N 43°11' E 009°04'1019.7
2017-Aug-18 11:00N 43°07' E 009°17'1019.4
2017-Aug-18 10:30N 43°03' E 009°28'1019.4
2017-Aug-18 10:00N 42°54' E 009°34'917.4
2017-Aug-18 09:30N 42°45' E 009°32'5 1.3
2017-Aug-18 05:50N 42°42' E 009°28'515.8
2017-Aug-18 05:30N 42°46' E 009°33'918.0
2017-Aug-18 05:01N 42°55' E 009°33'1018.3
2017-Aug-18 04:29N 43°03' E 009°27'919.2
2017-Aug-18 04:00N 43°04' E 009°15'1020.0
2017-Aug-18 03:30N 43°04' E 009°01'1020.4
2017-Aug-18 03:00N 43°03' E 008°47'1020.3
2017-Aug-18 02:30N 43°03' E 008°33'917.4
2017-Aug-18 02:00N 43°02' E 008°21'917.3
2017-Aug-18 01:30N 43°01' E 008°10'917.3
2017-Aug-18 01:00N 43°01' E 007°58'917.2
2017-Aug-18 00:30N 43°00' E 007°46'917.3
2017-Aug-18 00:00N 42°59' E 007°34'5615.8
2017-Aug-17 20:28N 42°57' E 006°18'714.7
2017-Aug-17 20:00N 42°57' E 006°09'713.1
2017-Aug-17 19:29N 43°01' E 006°01'714.1
2017-Aug-17 19:01N 43°06' E 005°55'1 2.2
2017-Aug-17 18:29N 43°07' E 005°56'0 0.0
2017-Aug-17 17:59N 43°07' E 005°56'0 0.0
2017-Aug-17 17:29N 43°07' E 005°56'0 0.0
2017-Aug-17 16:59N 43°07' E 005°56'0 0.0
2017-Aug-17 16:29N 43°07' E 005°56'0 0.0
2017-Aug-17 15:59N 43°07' E 005°56'0 0.0
2017-Aug-17 15:29N 43°07' E 005°56'0 0.0
2017-Aug-17 14:59N 43°07' E 005°56'0 0.0
2017-Aug-17 14:29N 43°07' E 005°56'0 0.0
2017-Aug-17 13:59N 43°07' E 005°56'0 0.0
2017-Aug-17 13:29N 43°07' E 005°56'0 0.0
2017-Aug-17 12:59N 43°07' E 005°56'0 0.0
2017-Aug-17 12:29N 43°07' E 005°56'0 0.0
2017-Aug-17 11:59N 43°07' E 005°56'0 0.0
2017-Aug-17 11:29N 43°07' E 005°56'0 0.0
2017-Aug-17 10:59N 43°07' E 005°56'0 0.0
2017-Aug-17 10:29N 43°07' E 005°56'0 0.0
2017-Aug-17 09:59N 43°07' E 005°56'0 0.0
2017-Aug-17 09:29N 43°07' E 005°56'0 0.0
2017-Aug-17 08:59N 43°07' E 005°56'0 0.0
2017-Aug-17 08:29N 43°07' E 005°56'0 0.0
2017-Aug-17 07:59N 43°07' E 005°56'0 0.0
2017-Aug-17 07:29N 43°07' E 005°56'0 0.0
2017-Aug-17 06:59N 43°07' E 005°56'0 0.0
2017-Aug-17 06:29N 43°07' E 005°56'0 0.3
2017-Aug-17 06:01N 43°07' E 005°56'910.8
2017-Aug-17 05:10N 42°60' E 006°03'215.2
2017-Aug-17 05:00N 42°58' E 006°05'814.7
2017-Aug-17 04:29N 42°56' E 006°15'815.8
2017-Aug-17 04:00N 42°56' E 006°26'815.9
2017-Aug-17 03:30N 42°57' E 006°37'815.8
2017-Aug-17 03:00N 42°57' E 006°48'815.8
2017-Aug-17 02:30N 42°58' E 006°58'815.3
2017-Aug-17 02:00N 42°58' E 007°09'815.6
2017-Aug-17 01:30N 42°59' E 007°19'815.6
2017-Aug-17 01:00N 42°60' E 007°30'816.1
2017-Aug-17 00:30N 43°00' E 007°41'816.7
2017-Aug-17 00:00N 43°00' E 007°52'816.6
2017-Aug-16 23:30N 43°01' E 008°04'816.5
2017-Aug-16 23:00N 43°01' E 008°15'816.4
2017-Aug-16 22:30N 43°02' E 008°26'816.0
2017-Aug-16 22:00N 43°02' E 008°37'815.7
2017-Aug-16 21:30N 43°03' E 008°48'815.7
2017-Aug-16 21:00N 43°03' E 008°58'815.9
2017-Aug-16 20:30N 43°04' E 009°09'816.5
2017-Aug-16 20:00N 43°04' E 009°21'715.0
2017-Aug-16 19:30N 43°03' E 009°31'714.8
2017-Aug-16 19:00N 42°55' E 009°34'815.8
2017-Aug-16 18:30N 42°47' E 009°34'7 2.9
2017-Aug-16 16:00N 42°42' E 009°28'816.0
2017-Aug-16 15:31N 42°48' E 009°35'918.9
2017-Aug-16 15:01N 42°58' E 009°33'918.2
2017-Aug-16 14:30N 43°04' E 009°24'919.4
2017-Aug-16 14:01N 43°04' E 009°11'1019.9
2017-Aug-16 13:30N 43°03' E 008°57'1020.6
2017-Aug-16 13:01N 43°03' E 008°43'1020.7
2017-Aug-16 12:31N 43°02' E 008°29'1020.5
2017-Aug-16 12:00N 43°01' E 008°15'1020.1
2017-Aug-16 11:31N 43°01' E 008°02'1019.7
2017-Aug-16 11:00N 42°60' E 007°48'1019.8
2017-Aug-16 10:31N 42°59' E 007°35'1020.1
2017-Aug-16 10:00N 42°59' E 007°21'1020.1
2017-Aug-16 09:30N 42°58' E 007°07'1020.1
2017-Aug-16 09:00N 42°57' E 006°54'1019.5
2017-Aug-16 08:29N 42°57' E 006°40'919.3
2017-Aug-16 08:00N 42°56' E 006°27'1019.5
2017-Aug-16 07:30N 42°56' E 006°14'1218.5
2017-Aug-16 06:51N 43°02' E 005°60'514.5
2017-Aug-16 06:31N 43°06' E 005°55'2 1.8
2017-Aug-16 05:38N 43°07' E 005°56'0 0.0
2017-Aug-16 05:25N 43°07' E 005°56'0 0.0
2017-Aug-16 04:59N 43°07' E 005°56'3 5.6
2017-Aug-16 04:30N 43°05' E 005°58'712.7
2017-Aug-16 03:59N 42°60' E 006°03'714.0
2017-Aug-16 03:30N 42°55' E 006°10'714.2
2017-Aug-16 03:00N 42°51' E 006°18'914.3
2017-Aug-16 02:24N 42°47' E 006°29'614.3
2017-Aug-16 01:59N 42°44' E 006°35'3214.2
2017-Aug-15 23:44N 42°27' E 007°12'314.1
2017-Aug-15 23:30N 42°25' E 007°16'714.0
2017-Aug-15 23:00N 42°21' E 007°24'714.0
2017-Aug-15 22:30N 42°18' E 007°32'714.1
2017-Aug-15 22:00N 42°14' E 007°40'714.2
2017-Aug-15 21:30N 42°10' E 007°48'714.0
2017-Aug-15 21:00N 42°06' E 007°56'714.1
2017-Aug-15 20:30N 42°03' E 008°04'714.2
2017-Aug-15 19:59N 41°59' E 008°12'714.2
2017-Aug-15 19:28N 41°54' E 008°21'714.1
2017-Aug-15 19:00N 41°51' E 008°28'713.6
2017-Aug-15 18:30N 41°50' E 008°37'1 0.2
2017-Aug-15 14:35N 41°50' E 008°38'119.7
2017-Aug-15 14:30N 41°50' E 008°36'1019.3
2017-Aug-15 14:01N 41°53' E 008°24'1019.8
2017-Aug-15 13:31N 41°58' E 008°13'1019.6
2017-Aug-15 13:01N 42°04' E 008°02'1019.8
2017-Aug-15 12:31N 42°09' E 007°51'1019.7
2017-Aug-15 12:00N 42°14' E 007°39'1019.9
2017-Aug-15 11:31N 42°20' E 007°28'1020.0
2017-Aug-15 11:00N 42°25' E 007°16'1119.7
2017-Aug-15 10:26N 42°31' E 007°03'819.7
2017-Aug-15 10:01N 42°35' E 006°54'1019.5
2017-Aug-15 09:30N 42°40' E 006°43'1019.4
2017-Aug-15 09:01N 42°45' E 006°32'1019.4
2017-Aug-15 08:30N 42°51' E 006°20'1019.5
2017-Aug-15 08:00N 42°56' E 006°09'1119.2
2017-Aug-15 07:25N 43°04' E 005°59'4 8.5
2017-Aug-15 07:00N 43°07' E 005°56'0 0.1
2017-Aug-15 06:31N 43°07' E 005°56'0 0.0
2017-Aug-15 06:01N 43°07' E 005°56'2 3.7
2017-Aug-15 05:30N 43°05' E 005°57'816.3
2017-Aug-15 05:00N 42°59' E 006°04'4019.8
2017-Aug-15 02:59N 42°57' E 006°58'919.7
2017-Aug-15 02:30N 42°58' E 007°11'1019.4
2017-Aug-15 02:00N 42°59' E 007°24'1019.4
2017-Aug-15 01:30N 42°59' E 007°38'1019.6
2017-Aug-15 01:00N 42°60' E 007°51'1019.2
2017-Aug-15 00:30N 43°00' E 008°04'1019.3
2017-Aug-15 00:00N 43°01' E 008°17'1019.3
2017-Aug-14 23:30N 43°02' E 008°30'918.8
2017-Aug-14 23:00N 43°02' E 008°43'918.7
2017-Aug-14 22:30N 43°03' E 008°56'919.0
2017-Aug-14 22:00N 43°04' E 009°09'1019.2
2017-Aug-14 21:30N 43°04' E 009°22'917.7
2017-Aug-14 21:00N 42°60' E 009°33'1020.0
2017-Aug-14 20:30N 42°50' E 009°34'9 5.6
2017-Aug-14 18:49N 42°42' E 009°28'514.3
2017-Aug-14 18:30N 42°45' E 009°32'918.0
2017-Aug-14 18:00N 42°54' E 009°34'918.2
2017-Aug-14 17:30N 43°02' E 009°29'1019.2
2017-Aug-14 17:00N 43°06' E 009°17'1019.6
2017-Aug-14 16:30N 43°10' E 009°04'1019.8
2017-Aug-14 16:00N 43°13' E 008°52'1020.0
2017-Aug-14 15:30N 43°16' E 008°39'1020.1
2017-Aug-14 15:00N 43°20' E 008°26'1020.1
2017-Aug-14 14:30N 43°24' E 008°13'1019.9
2017-Aug-14 14:00N 43°28' E 008°00'1019.7
2017-Aug-14 13:30N 43°31' E 007°48'1019.4
2017-Aug-14 13:00N 43°34' E 007°35'1019.3
2017-Aug-14 12:30N 43°38' E 007°23'5 2.4
2017-Aug-14 10:32N 43°41' E 007°17'0 9.9
2017-Aug-14 10:29N 43°40' E 007°17'714.0
2017-Aug-14 10:00N 43°36' E 007°24'715.0
2017-Aug-14 09:30N 43°31' E 007°32'918.6
2017-Aug-14 09:00N 43°25' E 007°42'1020.0
2017-Aug-14 08:30N 43°19' E 007°53'1020.0
2017-Aug-14 08:01N 43°12' E 008°03'1019.9
2017-Aug-14 07:30N 43°06' E 008°14'1019.8
2017-Aug-14 07:01N 42°60' E 008°24'1019.6
2017-Aug-14 06:30N 42°54' E 008°34'1019.2
2017-Aug-14 06:00N 42°48' E 008°45'1019.5
2017-Aug-14 05:31N 42°41' E 008°55'3 5.2
2017-Aug-14 04:55N 42°38' E 008°56'0 0.0
2017-Aug-14 04:26N 42°38' E 008°56'0 0.0
2017-Aug-14 03:58N 42°38' E 008°56'5 7.2
2017-Aug-14 03:16N 42°43' E 008°53'2112.4
2017-Aug-14 01:36N 42°56' E 008°31'212.7
2017-Aug-14 01:27N 42°58' E 008°29'612.6
2017-Aug-14 00:57N 43°02' E 008°23'1313.7
2017-Aug-14 00:00N 43°10' E 008°09'714.8
2017-Aug-13 23:30N 43°15' E 008°01'714.8
2017-Aug-13 23:00N 43°19' E 007°53'714.6
2017-Aug-13 22:30N 43°24' E 007°45'714.4
2017-Aug-13 22:00N 43°28' E 007°38'714.1
2017-Aug-13 21:30N 43°32' E 007°30'714.0
2017-Aug-13 21:00N 43°37' E 007°22'5 3.2
2017-Aug-13 19:21N 43°40' E 007°17'617.2
2017-Aug-13 19:01N 43°38' E 007°24'1020.3
2017-Aug-13 18:30N 43°34' E 007°37'1020.3
2017-Aug-13 18:00N 43°31' E 007°51'1020.1
2017-Aug-13 17:31N 43°27' E 008°04'1020.0
2017-Aug-13 17:00N 43°24' E 008°17'1020.1
2017-Aug-13 16:30N 43°20' E 008°30'1020.0
2017-Aug-13 16:00N 43°17' E 008°42'1019.8
2017-Aug-13 15:31N 43°13' E 008°55'1019.6
2017-Aug-13 15:00N 43°10' E 009°08'1019.5
2017-Aug-13 14:30N 43°07' E 009°20'1019.2
2017-Aug-13 14:00N 43°01' E 009°31'1120.5
2017-Aug-13 13:29N 42°51' E 009°34'10 6.6
2017-Aug-13 11:58N 42°42' E 009°27'715.0
2017-Aug-13 11:30N 42°47' E 009°34'918.0
2017-Aug-13 10:59N 42°56' E 009°33'1019.0
2017-Aug-13 10:26N 43°06' E 009°28'919.9
2017-Aug-13 10:00N 43°13' E 009°22'1019.7
2017-Aug-13 09:29N 43°22' E 009°14'919.6
2017-Aug-13 09:01N 43°30' E 009°08'1019.7
2017-Aug-13 08:30N 43°39' E 009°01'1019.7
2017-Aug-13 08:01N 43°47' E 008°54'1019.4
2017-Aug-13 07:30N 43°56' E 008°47'1019.4
2017-Aug-13 07:01N 44°04' E 008°40'1019.3
2017-Aug-13 06:30N 44°12' E 008°33'611.5
2017-Aug-13 06:00N 44°16' E 008°27'0 0.0
2017-Aug-13 05:30N 44°16' E 008°27'1 1.5
2017-Aug-13 05:00N 44°16' E 008°28'715.0
2017-Aug-13 04:30N 44°11' E 008°35'1020.1
2017-Aug-13 04:00N 44°02' E 008°42'1020.2
2017-Aug-13 03:30N 43°54' E 008°49'1020.0
2017-Aug-13 03:00N 43°45' E 008°57'1020.1
2017-Aug-13 02:30N 43°36' E 009°04'1020.2
2017-Aug-13 02:00N 43°28' E 009°10'1020.5
2017-Aug-13 01:30N 43°19' E 009°18'1020.0
2017-Aug-13 01:00N 43°10' E 009°25'1019.4
2017-Aug-13 00:30N 43°02' E 009°31'1020.3
2017-Aug-13 00:00N 42°52' E 009°34'11 7.0
2017-Aug-12 22:24N 42°42' E 009°27'513.1
2017-Aug-12 22:00N 42°45' E 009°32'917.9
2017-Aug-12 21:30N 42°54' E 009°34'1019.1
2017-Aug-12 21:00N 43°03' E 009°30'1020.2
2017-Aug-12 20:30N 43°12' E 009°23'1019.9
2017-Aug-12 20:00N 43°21' E 009°16'1019.8
2017-Aug-12 19:30N 43°29' E 009°09'1019.6
2017-Aug-12 19:00N 43°37' E 009°02'1019.6
2017-Aug-12 18:30N 43°46' E 008°54'1019.4
2017-Aug-12 18:00N 43°54' E 008°48'1019.9
2017-Aug-12 17:30N 44°03' E 008°41'1019.8
2017-Aug-12 17:00N 44°11' E 008°33'713.5
2017-Aug-12 16:30N 44°16' E 008°27'0 0.0
2017-Aug-12 16:00N 44°16' E 008°27'2 3.6
2017-Aug-12 15:30N 44°16' E 008°29'917.9
2017-Aug-12 15:01N 44°09' E 008°37'1019.3
2017-Aug-12 14:31N 44°01' E 008°44'1019.5
2017-Aug-12 14:00N 43°53' E 008°51'1019.3
2017-Aug-12 13:30N 43°44' E 008°57'1019.3
2017-Aug-12 13:01N 43°36' E 009°04'1019.4
2017-Aug-12 12:31N 43°28' E 009°11'1019.8
2017-Aug-12 12:01N 43°19' E 009°18'1019.7
2017-Aug-12 11:30N 43°10' E 009°24'0 0.1
2017-Aug-12 06:41N 43°10' E 009°25'319.4
2017-Aug-12 06:30N 43°13' E 009°22'1319.1
2017-Aug-12 05:50N 43°24' E 009°13'618.9
2017-Aug-12 05:30N 43°29' E 009°09'1019.1
2017-Aug-12 05:00N 43°37' E 009°02'1019.0
2017-Aug-12 04:30N 43°45' E 008°55'1019.1
2017-Aug-12 04:00N 43°53' E 008°48'1019.3
2017-Aug-12 03:30N 44°02' E 008°41'1019.5
2017-Aug-12 03:00N 44°10' E 008°34'815.8
2017-Aug-12 02:30N 44°16' E 008°27'0 0.5
2017-Aug-12 02:00N 44°16' E 008°27'0 0.0
2017-Aug-12 01:30N 44°16' E 008°27'0 0.0
2017-Aug-12 01:01N 44°16' E 008°27'0 0.0
2017-Aug-12 00:31N 44°16' E 008°27'0 0.0
2017-Aug-12 00:00N 44°16' E 008°27'0 0.0
2017-Aug-11 23:30N 44°16' E 008°27'4 7.2
2017-Aug-11 23:00N 44°15' E 008°32'918.1
2017-Aug-11 22:31N 44°06' E 008°30'918.8
2017-Aug-11 22:00N 43°56' E 008°28'918.4
2017-Aug-11 21:31N 43°47' E 008°26'918.6
2017-Aug-11 21:00N 43°38' E 008°24'915.4
2017-Aug-11 20:26N 43°29' E 008°24'818.3
2017-Aug-11 20:01N 43°27' E 008°34'917.9
2017-Aug-11 19:30N 43°24' E 008°46'917.9
2017-Aug-11 19:01N 43°21' E 008°58'917.9
2017-Aug-11 18:31N 43°18' E 009°09'917.5
2017-Aug-11 18:01N 43°15' E 009°20'918.0
2017-Aug-11 17:30N 43°08' E 009°28'7 1.4
2017-Aug-11 12:56N 43°02' E 009°32'4716.1
2017-Aug-11 10:00N 43°32' E 008°43'1018.7
2017-Aug-11 09:29N 43°41' E 008°39'919.0
2017-Aug-11 09:01N 43°50' E 008°37'1019.6
2017-Aug-11 08:30N 43°60' E 008°35'1019.9
2017-Aug-11 08:00N 44°10' E 008°33'714.8
2017-Aug-11 07:30N 44°16' E 008°27'0 0.3
2017-Aug-11 07:01N 44°16' E 008°27'0 0.0
2017-Aug-11 06:31N 44°16' E 008°27'2 4.1
2017-Aug-11 06:01N 44°16' E 008°30'815.6
2017-Aug-11 05:30N 44°09' E 008°33'918.6
2017-Aug-11 05:00N 43°60' E 008°31'918.4
2017-Aug-11 04:30N 43°51' E 008°27'1019.0
2017-Aug-11 04:00N 43°42' E 008°23'68 9.3
2017-Aug-10 20:41N 42°39' E 008°57'2817.5
2017-Aug-10 19:06N 42°46' E 008°21'219.4
2017-Aug-10 19:00N 42°47' E 008°18'919.2
2017-Aug-10 18:30N 42°49' E 008°05'1019.5
2017-Aug-10 18:01N 42°51' E 007°53'1417.5
2017-Aug-10 17:13N 43°01' E 007°40'419.5
2017-Aug-10 17:00N 43°05' E 007°37'1019.4
2017-Aug-10 16:30N 43°14' E 007°32'1019.3
2017-Aug-10 16:00N 43°23' E 007°27'1019.3
2017-Aug-10 15:29N 43°32' E 007°22'919.0
2017-Aug-10 15:00N 43°40' E 007°17'0 0.3
2017-Aug-10 13:29N 43°40' E 007°17'917.0
2017-Aug-10 12:56N 43°36' E 007°29'1219.8
2017-Aug-10 12:20N 43°32' E 007°45'619.6
2017-Aug-10 12:00N 43°30' E 007°53'1019.3
2017-Aug-10 11:30N 43°26' E 008°06'918.7
2017-Aug-10 11:00N 43°23' E 008°18'918.6
2017-Aug-10 10:30N 43°20' E 008°29'918.6
2017-Aug-10 10:00N 43°17' E 008°42'918.6
2017-Aug-10 09:30N 43°14' E 008°53'1019.0
2017-Aug-10 08:58N 43°10' E 009°07'919.1
2017-Aug-10 08:30N 43°07' E 009°18'918.7
2017-Aug-10 08:00N 43°03' E 009°29'1019.2
2017-Aug-10 07:30N 42°53' E 009°34'12 5.4
2017-Aug-10 05:12N 42°42' E 009°27'1 6.4
2017-Aug-10 05:00N 42°42' E 009°29'5 9.5
2017-Aug-10 04:30N 42°46' E 009°33'918.9
2017-Aug-10 04:00N 42°56' E 009°34'1018.3
2017-Aug-10 03:28N 43°04' E 009°26'919.4
2017-Aug-10 03:00N 43°04' E 009°14'1019.5
2017-Aug-10 02:30N 43°03' E 009°01'1019.4
2017-Aug-10 02:00N 43°03' E 008°47'1019.4
2017-Aug-10 01:30N 43°02' E 008°34'1119.5
2017-Aug-10 00:56N 43°01' E 008°19'819.3
2017-Aug-10 00:30N 43°01' E 008°08'919.0
2017-Aug-10 00:00N 43°00' E 007°55'1019.2
2017-Aug-09 23:30N 42°60' E 007°42'1019.4
2017-Aug-09 23:00N 42°59' E 007°28'1019.6
2017-Aug-09 22:30N 42°58' E 007°15'5618.2
2017-Aug-09 19:24N 43°04' E 005°58'3 8.2
2017-Aug-09 19:00N 43°07' E 005°56'0 0.1
2017-Aug-09 18:31N 43°07' E 005°56'0 0.0
2017-Aug-09 18:01N 43°07' E 005°56'0 0.0
2017-Aug-09 17:31N 43°07' E 005°56'1 1.3
2017-Aug-09 17:00N 43°07' E 005°55'1113.2
2017-Aug-09 16:10N 42°58' E 006°05'518.3
2017-Aug-09 15:55N 42°56' E 006°10'818.9
2017-Aug-09 15:30N 42°52' E 006°20'918.8
2017-Aug-09 15:00N 42°48' E 006°32'1019.0
2017-Aug-09 14:30N 42°45' E 006°44'919.1
2017-Aug-09 14:00N 42°40' E 006°55'1019.3
2017-Aug-09 13:29N 42°33' E 007°05'919.7
2017-Aug-09 13:00N 42°27' E 007°15'1019.8
2017-Aug-09 12:31N 42°21' E 007°25'1019.7
2017-Aug-09 12:00N 42°15' E 007°37'1019.7
2017-Aug-09 11:31N 42°10' E 007°47'1019.6
2017-Aug-09 11:01N 42°05' E 007°59'  

Dump ship's entire track history